createdAt,value
2018-08-25T00:01:13.327Z,28.71
2018-08-25T00:03:45.457Z,28.93
2018-08-25T00:06:17.210Z,29.10
2018-08-25T00:11:12.271Z,28.70
2018-08-25T00:13:44.276Z,28.76
2018-08-25T00:16:16.241Z,29.11
2018-08-25T00:18:50.076Z,29.09
2018-08-25T00:21:22.156Z,28.89
2018-08-25T00:23:53.540Z,28.66
2018-08-25T00:26:25.721Z,28.92
2018-08-25T00:28:56.732Z,29.31
2018-08-25T00:31:29.639Z,29.73
2018-08-25T00:34:02.247Z,29.54
2018-08-25T00:36:34.460Z,30.10
2018-08-25T00:39:09.532Z,30.77
2018-08-25T00:41:41.248Z,30.82
2018-08-25T00:44:13.932Z,30.96
2018-08-25T00:46:47.668Z,31.39
2018-08-25T00:49:18.641Z,30.62
2018-08-25T00:51:49.607Z,31.21
2018-08-25T00:54:24.433Z,30.33
2018-08-25T00:56:55.479Z,29.98
2018-08-25T00:59:26.769Z,30.25
2018-08-25T01:01:57.884Z,30.70
2018-08-25T01:04:29.613Z,30.30
2018-08-25T01:07:01.925Z,30.26
2018-08-25T01:09:32.935Z,30.87
2018-08-25T01:12:03.901Z,30.74
2018-08-25T01:14:36.109Z,31.40
2018-08-25T01:17:08.351Z,31.19
2018-08-25T01:19:51.501Z,31.22
2018-08-25T01:22:25.415Z,32.23
2018-08-25T01:24:57.802Z,32.47
2018-08-25T01:27:30.216Z,32.55
2018-08-25T01:32:40.976Z,32.27
2018-08-25T01:35:12.410Z,32.80
2018-08-25T01:37:44.365Z,33.72
2018-08-25T01:40:19.027Z,33.39
2018-08-25T01:42:50.668Z,33.10
2018-08-25T01:45:24.292Z,33.04
2018-08-25T01:47:57.732Z,33.11
2018-08-25T01:50:29.271Z,32.70
2018-08-25T01:53:02.621Z,33.66
2018-08-25T01:55:34.153Z,32.96
2018-08-25T01:58:07.451Z,33.65
2018-08-25T02:00:39.794Z,33.51
2018-08-25T02:03:14.156Z,33.69
2018-08-25T02:05:46.115Z,33.99
2018-08-25T02:08:17.063Z,33.62
2018-08-25T02:10:49.754Z,33.43
2018-08-25T02:13:20.893Z,33.05
2018-08-25T02:15:53.021Z,33.77
2018-08-25T02:18:26.352Z,33.32
2018-08-25T02:20:57.445Z,33.98
2018-08-25T02:23:31.105Z,34.18
2018-08-25T02:26:04.148Z,34.15
2018-08-25T02:28:35.867Z,35.00
2018-08-25T02:31:07.638Z,34.81
2018-08-25T02:33:41.608Z,35.79
2018-08-25T02:36:14.670Z,35.77
2018-08-25T02:38:48.225Z,36.56
2018-08-25T02:41:20.610Z,35.82
2018-08-25T02:43:53.056Z,36.72
2018-08-25T02:46:27.508Z,36.17
2018-08-25T02:48:58.673Z,36.14
2018-08-25T02:51:31.759Z,36.13
2018-08-25T02:54:03.334Z,37.31
2018-08-25T02:56:34.735Z,36.82
2018-08-25T02:59:06.070Z,37.32
2018-08-25T03:01:37.837Z,36.87
2018-08-25T03:04:10.351Z,37.19
2018-08-25T03:06:42.266Z,37.03
2018-08-25T03:09:14.280Z,38.25
2018-08-25T03:11:46.003Z,37.87
2018-08-25T03:14:17.197Z,37.08
2018-08-25T03:19:33.876Z,37.24
2018-08-25T03:22:05.616Z,37.50
2018-08-25T03:24:36.625Z,36.83
2018-08-25T03:27:08.196Z,37.64
2018-08-25T03:29:39.276Z,37.68
2018-08-25T03:32:10.956Z,37.78
2018-08-25T03:34:41.945Z,38.20
2018-08-25T03:37:13.170Z,37.72
2018-08-25T03:39:44.636Z,38.60
2018-08-25T03:42:15.582Z,38.70
2018-08-25T03:44:46.525Z,38.64
2018-08-25T03:47:17.472Z,39.85
2018-08-25T03:49:48.579Z,39.75
2018-08-25T03:52:19.944Z,40.40
2018-08-25T03:54:51.450Z,40.39
2018-08-25T03:57:22.533Z,40.16
2018-08-25T03:59:53.869Z,40.35
2018-08-25T04:02:26.810Z,40.52
2018-08-25T04:04:57.819Z,40.20
2018-08-25T04:07:28.775Z,40.05
2018-08-25T04:09:59.769Z,40.92
2018-08-25T04:12:31.112Z,39.91
2018-08-25T04:15:02.203Z,40.40
2018-08-25T04:17:33.352Z,41.19
2018-08-25T04:20:04.329Z,40.80
2018-08-25T04:22:35.336Z,41.32
2018-08-25T04:25:06.652Z,41.65
2018-08-25T04:27:37.666Z,41.33
2018-08-25T04:30:08.661Z,40.68
2018-08-25T04:32:39.188Z,41.29
2018-08-25T04:35:10.162Z,40.90
2018-08-25T04:37:42.316Z,40.66
2018-08-25T04:40:13.955Z,40.74
2018-08-25T04:42:45.143Z,40.44
2018-08-25T04:45:16.520Z,40.44
2018-08-25T04:47:46.656Z,41.20
2018-08-25T04:50:18.589Z,41.34
2018-08-25T04:52:49.069Z,41.58
2018-08-25T04:55:20.991Z,41.23
2018-08-25T04:57:54.966Z,41.03
2018-08-25T05:00:25.923Z,41.03
2018-08-25T05:02:57.268Z,40.43
2018-08-25T05:05:29.055Z,40.90
2018-08-25T05:08:00.037Z,41.51
2018-08-25T05:10:31.078Z,41.46
2018-08-25T05:13:02.081Z,41.30
2018-08-25T05:15:32.319Z,41.90
2018-08-25T05:18:03.368Z,41.33
2018-08-25T05:20:34.419Z,41.22
2018-08-25T05:23:05.433Z,40.87
2018-08-25T05:25:36.569Z,40.61
2018-08-25T05:28:07.924Z,41.15
2018-08-25T05:30:38.980Z,41.32
2018-08-25T05:33:10.103Z,41.39
2018-08-25T05:35:44.060Z,40.47
2018-08-25T05:38:15.132Z,40.81
2018-08-25T05:40:46.667Z,41.49
2018-08-25T05:43:17.714Z,40.96
2018-08-25T05:45:48.753Z,41.54
2018-08-25T05:48:20.367Z,41.57
2018-08-25T05:50:50.521Z,40.60
2018-08-25T05:53:21.474Z,41.05
2018-08-25T05:58:20.965Z,41.56
2018-08-25T06:00:52.025Z,41.49
2018-08-25T06:03:22.989Z,43.13
2018-08-25T06:05:54.589Z,43.44
2018-08-25T06:08:27.632Z,44.51
2018-08-25T06:10:57.867Z,44.66
2018-08-25T06:13:28.958Z,44.60
2018-08-25T06:16:00.887Z,45.15
2018-08-25T06:18:32.409Z,46.27
2018-08-25T06:21:03.442Z,46.45
2018-08-25T06:23:33.673Z,46.31
2018-08-25T06:26:04.658Z,46.05
2018-08-25T06:28:35.716Z,46.40
2018-08-25T06:31:07.497Z,46.33
2018-08-25T06:33:38.138Z,47.00
2018-08-25T06:36:09.272Z,48.08
2018-08-25T06:38:39.572Z,47.12
2018-08-25T06:41:10.512Z,47.59
2018-08-25T06:43:42.388Z,48.26
2018-08-25T06:46:12.747Z,47.99
2018-08-25T06:48:46.507Z,47.64
2018-08-25T06:51:17.928Z,47.67
2018-08-25T06:53:48.931Z,47.67
2018-08-25T06:56:19.943Z,48.73
2018-08-25T06:58:51.312Z,48.48
2018-08-25T07:01:22.307Z,49.34
2018-08-25T07:03:53.597Z,49.29
2018-08-25T07:06:24.806Z,49.30
2018-08-25T07:08:55.901Z,49.49
2018-08-25T07:11:26.879Z,50.21
2018-08-25T07:13:57.824Z,49.51
2018-08-25T07:16:28.837Z,50.87
2018-08-25T07:19:00.647Z,49.81
2018-08-25T07:21:31.979Z,49.76
2018-08-25T07:24:04.610Z,50.36
2018-08-25T07:26:37.181Z,51.10
2018-08-25T07:29:08.371Z,51.61
2018-08-25T07:31:39.357Z,51.45
2018-08-25T07:34:11.560Z,51.54
2018-08-25T07:36:43.818Z,50.72
2018-08-25T07:39:14.843Z,51.04
2018-08-25T07:41:45.024Z,51.25
2018-08-25T07:44:15.219Z,51.25
2018-08-25T07:46:47.924Z,51.51
2018-08-25T07:49:18.931Z,51.40
2018-08-25T07:51:49.996Z,52.01
2018-08-25T07:54:21.041Z,51.01
2018-08-25T07:56:53.945Z,49.74
2018-08-25T07:59:26.147Z,49.34
2018-08-25T08:01:57.159Z,50.44
2018-08-25T08:04:28.124Z,50.11
2018-08-25T08:07:01.401Z,48.33
2018-08-25T08:09:33.280Z,49.72
2018-08-25T08:12:05.627Z,49.30
2018-08-25T08:14:37.330Z,49.24
2018-08-25T08:17:08.351Z,48.59
2018-08-25T08:19:40.265Z,47.48
2018-08-25T08:22:12.164Z,48.63
2018-08-25T08:24:43.243Z,48.66
2018-08-25T08:27:14.837Z,48.12
2018-08-25T08:29:46.950Z,48.07
2018-08-25T08:32:17.977Z,44.45
2018-08-25T08:34:49.357Z,45.97
2018-08-25T08:37:26.889Z,47.64
2018-08-25T08:39:59.942Z,48.94
2018-08-25T08:42:30.911Z,49.00
2018-08-25T08:45:02.363Z,49.60
2018-08-25T08:47:36.488Z,48.58
2018-08-25T08:50:10.149Z,47.40
2018-08-25T08:52:41.608Z,46.73
2018-08-25T08:55:12.625Z,48.36
2018-08-25T08:57:43.681Z,47.32
2018-08-25T09:00:14.660Z,47.48
2018-08-25T09:02:46.306Z,47.13
2018-08-25T09:05:17.296Z,47.40
2018-08-25T09:07:48.437Z,47.52
2018-08-25T09:10:21.319Z,46.58
2018-08-25T09:12:52.361Z,45.75
2018-08-25T09:15:24.492Z,47.01
2018-08-25T09:17:56.191Z,47.15
2018-08-25T09:20:27.227Z,47.97
2018-08-25T09:22:59.327Z,48.94
2018-08-25T09:25:30.484Z,49.82
2018-08-25T09:28:02.642Z,50.46
2018-08-25T09:30:34.467Z,48.94
2018-08-25T09:33:06.358Z,50.00
2018-08-25T09:35:39.165Z,46.87
2018-08-25T09:38:10.338Z,45.23
2018-08-25T09:40:41.497Z,45.91
2018-08-25T09:43:14.827Z,46.22
2018-08-25T09:45:45.943Z,43.46
2018-08-25T09:48:16.965Z,42.25
2018-08-25T09:50:49.560Z,39.42
2018-08-25T09:53:22.496Z,38.93
2018-08-25T09:55:54.443Z,38.81
2018-08-25T09:58:27.342Z,39.58
2018-08-25T10:01:03.815Z,40.10
2018-08-25T10:03:36.288Z,38.84
2018-08-25T10:06:07.359Z,36.68
2018-08-25T10:08:39.275Z,34.80
2018-08-25T10:11:10.817Z,34.96
2018-08-25T10:13:43.676Z,35.03
2018-08-25T10:16:15.701Z,34.09
2018-08-25T10:18:47.173Z,32.42
2018-08-25T10:21:18.208Z,32.23
2018-08-25T10:23:50.303Z,32.28
2018-08-25T10:26:21.327Z,32.54
2018-08-25T10:28:53.401Z,32.20
2018-08-25T10:31:26.155Z,31.63
2018-08-25T10:33:57.739Z,30.10
2018-08-25T10:36:28.853Z,30.41
2018-08-25T10:39:00.219Z,29.68
2018-08-25T10:41:31.191Z,29.38
2018-08-25T10:44:02.536Z,29.32
2018-08-25T10:46:39.101Z,29.39
2018-08-25T10:49:10.390Z,29.52
2018-08-25T10:51:41.506Z,29.75
2018-08-25T10:54:16.703Z,29.05
2018-08-25T10:56:47.718Z,28.10
2018-08-25T10:59:20.245Z,28.45
2018-08-25T11:01:51.428Z,28.31
2018-08-25T11:04:23.037Z,27.85
2018-08-25T11:06:57.429Z,27.55
2018-08-25T11:09:28.428Z,27.75
2018-08-25T11:12:02.027Z,27.06
2018-08-25T11:14:37.060Z,24.96
2018-08-25T11:17:09.382Z,24.64
2018-08-25T11:19:41.163Z,23.23
2018-08-25T11:22:12.367Z,22.38
2018-08-25T11:24:43.425Z,22.91
2018-08-25T11:27:14.553Z,22.07
2018-08-25T11:29:46.849Z,20.87
2018-08-25T11:32:22.619Z,20.12
2018-08-25T11:34:53.934Z,19.41
2018-08-25T11:37:26.514Z,19.69
2018-08-25T11:40:01.195Z,18.77
2018-08-25T11:42:32.756Z,19.98
2018-08-25T11:45:08.161Z,20.76
2018-08-25T11:50:19.760Z,20.31
2018-08-25T11:52:51.406Z,20.20
2018-08-25T11:55:26.077Z,20.22
2018-08-25T11:57:57.283Z,20.10
2018-08-25T12:00:31.364Z,20.69
2018-08-25T12:03:03.833Z,18.98
2018-08-25T12:05:37.524Z,18.97
2018-08-25T12:08:08.518Z,19.46
2018-08-25T12:10:41.377Z,20.04
2018-08-25T12:13:12.456Z,19.97
2018-08-25T12:15:43.618Z,19.28
2018-08-25T12:18:15.757Z,19.39
2018-08-25T12:20:49.652Z,20.07
2018-08-25T12:23:21.243Z,20.64
2018-08-25T12:25:52.366Z,20.54
2018-08-25T12:28:24.592Z,21.81
2018-08-25T12:30:56.576Z,21.80
2018-08-25T12:33:30.355Z,22.66
2018-08-25T12:36:05.625Z,22.55
2018-08-25T12:38:37.560Z,22.40
2018-08-25T12:41:08.638Z,22.05
2018-08-25T12:43:41.271Z,22.08
2018-08-25T12:46:12.728Z,21.82
2018-08-25T12:48:43.780Z,21.40
2018-08-25T12:51:16.275Z,20.93
2018-08-25T12:53:50.443Z,21.27
2018-08-25T12:56:25.545Z,20.68
2018-08-25T12:58:57.556Z,20.70
2018-08-25T13:01:31.526Z,21.18
2018-08-25T13:04:02.814Z,20.99
2018-08-25T13:06:33.733Z,20.42
2018-08-25T13:09:08.062Z,20.75
2018-08-25T13:11:40.568Z,19.79
2018-08-25T13:14:11.608Z,19.83
2018-08-25T13:16:47.217Z,19.89
2018-08-25T13:19:20.894Z,19.58
2018-08-25T13:21:51.966Z,19.76
2018-08-25T13:24:24.558Z,19.14
2018-08-25T13:26:56.468Z,20.32
2018-08-25T13:29:27.430Z,20.29
2018-08-25T13:31:59.432Z,20.40
2018-08-25T13:34:30.970Z,20.31
2018-08-25T13:37:04.242Z,20.39
2018-08-25T13:39:35.263Z,20.20
2018-08-25T13:42:06.873Z,20.16
2018-08-25T13:44:39.251Z,19.53
2018-08-25T13:47:10.920Z,19.66
2018-08-25T13:49:42.153Z,19.52
2018-08-25T13:52:14.785Z,21.01
2018-08-25T13:54:47.667Z,19.95
2018-08-25T13:57:20.763Z,20.09
2018-08-25T13:59:52.789Z,20.12
2018-08-25T14:02:25.873Z,20.71
2018-08-25T14:04:58.570Z,21.03
2018-08-25T14:07:29.575Z,20.82
2018-08-25T14:10:02.674Z,20.42
2018-08-25T14:12:34.658Z,19.66
2018-08-25T14:15:07.578Z,19.16
2018-08-25T14:17:39.970Z,18.89
2018-08-25T14:20:12.488Z,18.87
2018-08-25T14:22:46.359Z,18.82
2018-08-25T14:25:17.963Z,18.22
2018-08-25T14:27:48.985Z,16.60
2018-08-25T14:30:22.487Z,19.05
2018-08-25T14:32:53.585Z,18.92
2018-08-25T14:35:28.766Z,20.15
2018-08-25T14:38:00.418Z,20.58
2018-08-25T14:40:32.554Z,19.87
2018-08-25T14:43:03.949Z,20.36
2018-08-25T14:45:36.835Z,20.98
2018-08-25T14:48:11.964Z,20.64
2018-08-25T14:50:45.347Z,21.03
2018-08-25T14:53:16.917Z,20.96
2018-08-25T14:55:48.030Z,20.90
2018-08-25T14:58:24.450Z,20.91
2018-08-25T15:00:55.648Z,20.95
2018-08-25T15:03:28.026Z,21.12
2018-08-25T15:05:59.950Z,20.73
2018-08-25T15:08:32.956Z,19.94
2018-08-25T15:11:07.789Z,19.46
2018-08-25T15:13:38.870Z,18.83
2018-08-25T15:16:13.486Z,19.83
2018-08-25T15:18:45.594Z,19.41
2018-08-25T15:21:17.681Z,19.53
2018-08-25T15:23:49.676Z,19.45
2018-08-25T15:26:23.685Z,20.16
2018-08-25T15:28:55.680Z,20.54
2018-08-25T15:31:28.361Z,20.95
2018-08-25T15:33:59.813Z,20.92
2018-08-25T15:36:31.541Z,21.08
2018-08-25T15:39:03.673Z,20.93
2018-08-25T15:41:37.474Z,21.19
2018-08-25T15:44:11.485Z,20.50
2018-08-25T15:46:43.570Z,21.05
2018-08-25T15:49:15.406Z,21.45
2018-08-25T15:51:48.756Z,21.33
2018-08-25T15:54:20.561Z,21.05
2018-08-25T15:56:52.672Z,21.39
2018-08-25T15:59:23.709Z,21.25
2018-08-25T16:01:55.511Z,20.90
2018-08-25T16:04:27.458Z,20.87
2018-08-25T16:06:58.640Z,21.79
2018-08-25T16:09:32.215Z,22.15
2018-08-25T16:12:04.884Z,21.52
2018-08-25T16:14:38.528Z,21.70
2018-08-25T16:17:10.144Z,22.86
2018-08-25T16:19:42.487Z,22.16
2018-08-25T16:22:13.774Z,22.82
2018-08-25T16:24:47.332Z,22.85
2018-08-25T16:27:18.585Z,22.69
2018-08-25T16:29:50.271Z,23.04
2018-08-25T16:32:22.442Z,22.29
2018-08-25T16:34:55.269Z,22.90
2018-08-25T16:37:28.706Z,22.36
2018-08-25T16:39:59.869Z,22.06
2018-08-25T16:42:35.955Z,21.37
2018-08-25T16:45:10.171Z,22.02
2018-08-25T16:47:44.198Z,21.80
2018-08-25T16:50:16.123Z,21.22
2018-08-25T16:52:47.410Z,20.41
2018-08-25T16:55:20.805Z,20.38
2018-08-25T16:57:58.606Z,19.93
2018-08-25T17:00:37.375Z,19.98
2018-08-25T17:03:08.796Z,20.07
2018-08-25T17:05:42.223Z,20.27
2018-08-25T17:08:13.464Z,19.20
2018-08-25T17:10:45.368Z,20.18
2018-08-25T17:13:17.227Z,19.56
2018-08-25T17:19:14.353Z,19.90
2018-08-25T17:21:45.819Z,20.17
2018-08-25T17:24:17.685Z,21.02
2018-08-25T17:26:48.904Z,21.72
2018-08-25T17:29:21.077Z,21.63
2018-08-25T17:31:53.905Z,22.17
2018-08-25T17:34:26.821Z,22.71
2018-08-25T17:39:40.048Z,22.89
2018-08-25T17:42:15.383Z,22.95
2018-08-25T17:44:49.403Z,23.80
2018-08-25T17:47:23.253Z,23.86
2018-08-25T17:49:57.668Z,24.47
2018-08-25T17:52:32.627Z,24.94
2018-08-25T17:55:09.622Z,25.28
2018-08-25T17:57:45.767Z,26.62
2018-08-25T18:00:24.555Z,27.15
2018-08-25T18:03:00.599Z,27.83
2018-08-25T18:05:45.743Z,28.09
2018-08-25T18:08:29.269Z,28.27
2018-08-25T18:11:02.538Z,29.01
2018-08-25T18:13:37.259Z,29.22
2018-08-25T18:18:55.092Z,29.41
2018-08-25T18:21:26.703Z,29.94
2018-08-25T18:23:59.991Z,30.36
2018-08-25T18:26:33.995Z,30.82
2018-08-25T18:29:08.566Z,31.12
2018-08-25T18:31:43.061Z,31.71
2018-08-25T18:34:17.071Z,31.15
2018-08-25T18:36:50.601Z,31.68
2018-08-25T18:39:21.768Z,31.52
2018-08-25T18:41:53.908Z,31.61
2018-08-25T18:44:27.887Z,31.29
2018-08-25T18:47:00.326Z,31.00
2018-08-25T18:49:32.881Z,31.30
2018-08-25T18:52:06.777Z,31.24
2018-08-25T18:54:39.415Z,31.82
2018-08-25T18:57:15.328Z,30.95
2018-08-25T18:59:50.716Z,31.77
2018-08-25T19:02:25.824Z,32.38
2018-08-25T19:04:57.532Z,32.26
2018-08-25T19:07:28.732Z,32.04
2018-08-25T19:10:03.426Z,32.67
2018-08-25T19:12:38.283Z,32.57
2018-08-25T19:15:11.761Z,33.12
2018-08-25T19:17:45.101Z,33.66
2018-08-25T19:20:18.784Z,33.57
2018-08-25T19:22:50.904Z,33.40
2018-08-25T19:25:23.023Z,33.54
2018-08-25T19:27:55.064Z,34.64
2018-08-25T19:30:26.708Z,34.42
2018-08-25T19:32:59.697Z,34.33
2018-08-25T19:35:37.407Z,34.73
2018-08-25T19:38:10.801Z,34.63
2018-08-25T19:40:46.453Z,35.37
2018-08-25T19:43:17.500Z,35.09
2018-08-25T19:45:50.809Z,35.40
2018-08-25T19:48:22.220Z,35.21
2018-08-25T19:50:56.618Z,35.88
2018-08-25T19:53:27.665Z,35.01
2018-08-25T19:56:00.802Z,35.27
2018-08-25T19:58:34.026Z,35.40
2018-08-25T20:01:05.178Z,34.87
2018-08-25T20:03:36.965Z,35.40
2018-08-25T20:06:09.835Z,35.75
2018-08-25T20:08:40.982Z,35.09
2018-08-25T20:11:13.080Z,33.98
2018-08-25T20:13:46.404Z,34.94
2018-08-25T20:16:21.072Z,33.88
2018-08-25T20:18:52.422Z,34.45
2018-08-25T20:21:26.540Z,34.91
2018-08-25T20:23:59.449Z,34.08
2018-08-25T20:26:31.412Z,33.68
2018-08-25T20:29:02.850Z,34.08
2018-08-25T20:31:38.073Z,34.26
2018-08-25T20:34:14.343Z,34.25
2018-08-25T20:36:46.834Z,33.98
2018-08-25T20:39:25.047Z,34.24
2018-08-25T20:41:56.191Z,33.70
2018-08-25T20:44:27.290Z,34.63
2018-08-25T20:46:59.286Z,34.29
2018-08-25T20:49:36.763Z,34.55
2018-08-25T20:52:08.606Z,34.03
2018-08-25T20:54:40.427Z,34.13
2018-08-25T20:57:13.366Z,34.51
2018-08-25T20:59:46.267Z,34.75
2018-08-25T21:02:24.582Z,34.89
2018-08-25T21:04:56.986Z,34.21
2018-08-25T21:07:35.581Z,34.92
2018-08-25T21:10:13.755Z,34.70
2018-08-25T21:12:52.298Z,34.48
2018-08-25T21:15:27.013Z,34.21
2018-08-25T21:18:02.623Z,34.96
2018-08-25T21:20:36.322Z,34.43
2018-08-25T21:23:08.070Z,35.31
2018-08-25T21:25:41.172Z,35.42
2018-08-25T21:28:13.412Z,35.73
2018-08-25T21:30:45.752Z,37.15
2018-08-25T21:33:18.304Z,36.68
2018-08-25T21:35:51.595Z,36.77
2018-08-25T21:38:22.705Z,37.23
2018-08-25T21:40:54.852Z,36.64
2018-08-25T21:43:26.471Z,36.99
2018-08-25T21:45:58.272Z,37.76
2018-08-25T21:48:32.494Z,37.94
2018-08-25T21:51:07.644Z,38.13
2018-08-25T21:53:39.482Z,38.58
2018-08-25T21:56:11.727Z,38.71
2018-08-25T21:58:47.495Z,38.70
2018-08-25T22:01:18.515Z,38.84
2018-08-25T22:03:52.384Z,39.15
2018-08-25T22:06:26.808Z,38.40
2018-08-25T22:09:02.839Z,38.17
2018-08-25T22:11:35.606Z,38.18
2018-08-25T22:14:06.808Z,38.48
2018-08-25T22:16:38.410Z,39.03
2018-08-25T22:19:10.418Z,39.91
2018-08-25T22:21:42.236Z,39.45
2018-08-25T22:24:15.523Z,39.33
2018-08-25T22:26:47.397Z,38.74
2018-08-25T22:29:19.761Z,39.36
2018-08-25T22:31:53.107Z,39.47
2018-08-25T22:34:25.179Z,39.07
2018-08-25T22:36:59.084Z,38.35
2018-08-25T22:39:32.485Z,37.80
2018-08-25T22:42:08.476Z,38.53
2018-08-25T22:44:39.592Z,38.15
2018-08-25T22:47:11.262Z,39.18
2018-08-25T22:49:44.651Z,39.57
2018-08-25T22:52:16.771Z,39.93
2018-08-25T22:54:50.340Z,40.22
2018-08-25T22:57:22.843Z,39.50
2018-08-25T22:59:57.778Z,39.66
2018-08-25T23:02:34.138Z,40.15
2018-08-25T23:05:08.080Z,39.99
2018-08-25T23:07:42.271Z,40.27
2018-08-25T23:10:14.013Z,40.25
2018-08-25T23:12:47.180Z,40.19
2018-08-25T23:15:20.595Z,40.73
2018-08-25T23:17:54.803Z,41.04
2018-08-25T23:20:28.405Z,41.21
2018-08-25T23:23:02.788Z,41.36
2018-08-25T23:25:34.548Z,41.55
2018-08-25T23:28:06.403Z,41.52
2018-08-25T23:30:40.135Z,41.97
2018-08-25T23:33:11.386Z,42.08
2018-08-25T23:35:45.917Z,42.45
2018-08-25T23:38:20.788Z,42.82
2018-08-25T23:40:58.170Z,42.81
2018-08-25T23:43:32.237Z,42.65
2018-08-25T23:46:03.282Z,43.23
2018-08-25T23:48:34.438Z,42.81
2018-08-25T23:51:05.492Z,43.11
2018-08-25T23:53:37.381Z,44.08
2018-08-25T23:56:10.603Z,43.95
2018-08-25T23:58:42.396Z,43.94
